Chula Vista (153, 154, 645) Station Data

Red Flag Warning: No
Fire Weather Zone: 243
SDGE Region: Metro
Lat/Lon: 32.602/-117.058

Observations

Time Wind Speed/Gust Temp(F) RH Fuel Moist Fuel Temp(F) Dewpt(F) Tmax(F) Tmin(F) Accum Precip 10-min Precip SL Press(mb)
5/24 8:30am 304 4 G 8 60° 86% - - 56° 61.8° 58.7° - - -
5/24 8:20am 263 5 G 8 60° 86% - - 56° 61.8° 58.7° - - -
5/24 8:10am 275 5 G 7 60° 87% - - 56° 61.8° 58.7° - - -
5/24 8:00am 286 4 G 7 60° 87% - - 56° 61.8° 58.7° - - -
5/24 7:50am 270 3 G 6 60° 87% - - 56° 61.8° 58.7° - - -
5/24 7:40am 287 3 G 5 60° 87% - - 56° 61.8° 58.7° - - -
5/24 7:30am 268 3 G 5 60° 87% - - 56° 61.8° 58.7° - - -
5/24 7:20am 277 3 G 5 60° 87% - - 56° 61.8° 58.7° - - -
5/24 7:10am 99 1 G 3 60° 88% - - 56° 61.8° 58.7° - - -
5/24 7:00am 63 2 G 5 60° 88% - - 56° 61.8° 58.7° - - -
5/24 6:50am 243 2 G 4 60° 88% - - 56° 61.8° 58.7° - - -
5/24 6:40am 234 2 G 4 60° 88% - - 56° 61.8° 58.7° - - -
5/24 6:30am 225 2 G 5 60° 88% - - 56° 61.8° 58.7° - - -
5/24 6:20am 242 3 G 5 60° 88% - - 56° 61.8° 58.7° - - -
5/24 6:10am 205 2 G 5 59° 89% - - 56° 61.8° 58.7° - - -
5/24 6:00am 256 2 G 4 59° 89% - - 56° 61.8° 58.7° - - -
5/24 5:50am 241 5 G 8 59° 89% - - 56° 61.8° 58.7° - - -
5/24 5:40am 232 7 G 11 59° 88% - - 56° 61.8° 58.9° - - -
5/24 5:30am 230 6 G 11 60° 88% - - 57° 61.8° 59.2° - - -
5/24 5:20am 259 3 G 5 60° 88% - - 57° 61.8° 59.2° - - -
5/24 5:10am 265 4 G 6 60° 88% - - 57° 61.8° 59.2° - - -
5/24 5:00am 254 2 G 4 60° 89% - - 57° 61.8° 59.2° - - -
5/24 4:50am 255 2 G 3 60° 89% - - 57° 61.8° 59.2° - - -
5/24 4:40am 317 2 G 4 60° 89% - - 57° 61.8° 59.2° - - -
5/24 4:30am 5 2 G 5 60° 89% - - 57° 61.8° 59.2° - - -
5/24 4:20am 30 2 G 4 60° 89% - - 57° 61.8° 59.2° - - -
5/24 4:10am 359 3 G 5 60° 90% - - 57° 61.8° 59.2° - - -
5/24 4:00am 1 2 G 5 60° 90% - - 57° 61.8° 59.2° - - -
5/24 3:50am 353 3 G 5 60° 90% - - 57° 61.8° 59.2° - - -
5/24 3:40am 296 2 G 4 60° 89% - - 57° 61.8° 59.3° - - -
5/24 3:30am 256 3 G 5 60° 89% - - 57° 61.8° 59.5° - - -
5/24 3:20am 247 3 G 6 60° 89% - - 57° 61.8° 59.7° - - -
5/24 3:10am 251 4 G 6 60° 89% - - 57° 61.8° 59.8° - - -
5/24 3:00am 256 4 G 7 60° 88% - - 57° 61.8° 59.9° - - -
5/24 2:50am 241 5 G 8 60° 88% - - 57° 61.8° 59.9° - - -
5/24 2:40am 243 6 G 9 61° 88% - - 57° 61.8° 60.3° - - -
5/24 2:30am 237 5 G 9 61° 88% - - 57° 61.8° 60.6° - - -
5/24 2:20am 253 2 G 7 61° 88% - - 57° 61.8° 60.6° - - -
5/24 2:10am 222 2 G 4 61° 88% - - 57° 61.8° 60.6° - - -
5/24 2:00am 238 3 G 6 61° 88% - - 58° 61.8° 60.6° - - -
5/24 1:50am 292 2 G 4 61° 88% - - 57° 61.8° 60.6° - - -
5/24 1:40am 299 2 G 5 61° 88% - - 57° 61.8° 60.6° - - -
5/24 1:30am 228 3 G 5 61° 87% - - 57° 61.8° 60.6° - - -
5/24 1:20am 251 3 G 6 61° 87% - - 58° 61.8° 60.6° - - -
5/24 1:10am 161 0 G 1 61° 88% - - 58° 61.8° 60.6° - - -
5/24 1:00am 161 1 G 3 61° 88% - - 57° 61.6° 60.6° - - -
5/24 12:50am 30 2 G 5 61° 88% - - 57° 61.6° 60.6° - - -
5/24 12:40am 337 2 G 4 61° 88% - - 58° 61.6° 60.8° - - -
5/24 12:30am 251 2 G 4 61° 88% - - 57° 61.6° 60.8° - - -
5/24 12:20am 221 2 G 3 61° 88% - - 58° 61.6° 60.8° - - -
5/24 12:10am 217 2 G 4 61° 88% - - 58° 61.6° 60.8° - - -
5/24 12:00am 278 3 G 5 61° 88% - - 58° 72.4° 58.9° - - -
5/23 11:50pm 225 2 G 4 61° 88% - - 57° 72.4° 58.9° - - -
5/23 11:40pm 252 3 G 6 61° 88% - - 57° 72.4° 58.9° - - -
5/23 11:30pm 243 5 G 6 61° 88% - - 58° 72.4° 58.9° - - -
5/23 11:20pm 271 4 G 7 61° 88% - - 58° 72.4° 58.9° - - -
5/23 11:10pm 235 4 G 8 61° 87% - - 58° 72.4° 58.9° - - -
5/23 11:00pm 222 5 G 8 62° 87% - - 58° 72.4° 58.9° - - -
5/23 10:50pm 226 4 G 8 62° 87% - - 58° 72.4° 58.9° - - -
5/23 10:40pm 225 4 G 6 62° 87% - - 58° 72.4° 58.9° - - -
5/23 10:30pm 221 3 G 5 62° 87% - - 58° 72.4° 58.9° - - -
5/23 10:20pm 244 3 G 5 62° 87% - - 58° 72.4° 58.9° - - -
5/23 10:10pm 264 3 G 5 62° 87% - - 58° 72.4° 58.9° - - -
5/23 10:00pm 231 2 G 4 62° 88% - - 58° 72.4° 58.9° - - -
5/23 9:50pm 277 3 G 6 62° 88% - - 58° 72.4° 58.9° - - -
5/23 9:40pm 262 3 G 6 62° 88% - - 58° 72.4° 58.9° - - -
5/23 9:30pm 271 3 G 7 62° 87% - - 58° 72.4° 58.9° - - -
5/23 9:20pm 275 4 G 6 62° 87% - - 58° 72.4° 58.9° - - -
5/23 9:10pm 254 4 G 6 62° 87% - - 58° 72.4° 58.9° - - -
5/23 9:00pm 242 5 G 7 62° 87% - - 58° 72.4° 58.9° - - -
5/23 8:50pm 246 5 G 8 62° 87% - - 58° 72.4° 58.9° - - -
5/23 8:40pm 249 5 G 7 63° 86% - - 58° 72.4° 58.9° - - -
5/23 8:30pm 255 5 G 8 63° 85% - - 58° 72.4° 58.9° - - -
5/23 8:20pm 244 5 G 9 63° 83% - - 58° 72.4° 58.9° - - -
5/23 8:10pm 241 4 G 7 64° 81% - - 58° 72.4° 58.9° - - -
5/23 8:00pm 244 5 G 8 65° 79% - - 58° 72.4° 58.9° - - -
5/23 7:50pm 238 5 G 9 66° 77% - - 58° 72.4° 58.9° - - -
5/23 7:40pm 212 3 G 5 66° 76% - - 58° 72.4° 58.9° - - -
5/23 7:30pm 222 3 G 4 66° 74% - - 58° 72.4° 58.9° - - -
5/23 7:20pm 222 3 G 6 66° 74% - - 58° 72.4° 58.9° - - -
5/23 7:10pm 218 2 G 4 67° 73% - - 58° 72.4° 58.9° - - -
5/23 7:00pm 248 3 G 5 66° 75% - - 58° 72.4° 58.9° - - -
5/23 6:50pm 241 2 G 5 66° 76% - - 58° 72.4° 58.9° - - -
5/23 6:40pm 251 4 G 7 66° 75% - - 58° 72.4° 58.9° - - -
5/23 6:30pm 267 4 G 6 65° 77% - - 58° 72.4° 58.9° - - -
5/23 6:20pm 256 6 G 9 65° 77% - - 58° 72.4° 58.9° - - -
5/23 6:10pm 256 7 G 10 65° 77% - - 57° 72.4° 58.9° - - -
5/23 6:00pm 247 7 G 10 65° 76% - - 57° 72.4° 58.9° - - -
5/23 5:50pm 261 8 G 12 65° 75% - - 57° 72.4° 58.9° - - -
5/23 5:40pm 254 7 G 11 66° 73% - - 57° 72.4° 58.9° - - -
5/23 5:30pm 265 8 G 12 66° 72% - - 56° 72.4° 58.9° - - -
5/23 5:20pm 258 8 G 12 66° 71% - - 56° 72.4° 58.9° - - -
5/23 5:10pm 255 8 G 13 66° 70% - - 56° 72.4° 58.9° - - -
5/23 5:00pm 257 8 G 13 67° 69% - - 56° 72.4° 58.9° - - -
5/23 4:50pm 260 8 G 13 66° 71% - - 56° 72.4° 58.9° - - -
5/23 4:40pm 264 9 G 13 65° 71% - - 56° 72.4° 58.9° - - -
5/23 4:30pm 254 9 G 14 65° 71% - - 56° 72.4° 58.9° - - -
5/23 4:20pm 253 9 G 14 66° 71% - - 56° 72.4° 58.9° - - -
5/23 4:10pm 260 9 G 14 66° 72% - - 57° 72.4° 58.9° - - -
5/23 4:00pm 256 9 G 13 66° 72% - - 57° 72.4° 58.9° - - -
5/23 3:50pm 259 8 G 12 66° 72% - - 57° 72.4° 58.9° - - -
5/23 3:40pm 261 8 G 11 66° 72% - - 57° 72.4° 58.9° - - -
5/23 3:30pm 268 8 G 12 66° 72% - - 57° 72.4° 58.9° - - -
5/23 3:20pm 257 8 G 13 67° 70% - - 57° 72.4° 58.9° - - -
5/23 3:10pm 241 9 G 13 66° 71% - - 57° 72.4° 58.9° - - -
5/23 3:00pm 242 8 G 13 67° 71% - - 57° 72.4° 58.9° - - -
5/23 2:50pm 245 8 G 13 67° 71% - - 57° 72.4° 58.9° - - -
5/23 2:40pm 258 6 G 12 67° 71% - - 57° 72.4° 58.9° - - -
5/23 2:30pm 263 7 G 13 66° 72% - - 57° 72.4° 58.9° - - -
5/23 2:20pm 268 8 G 13 66° 73% - - 57° 72.4° 58.9° - - -
5/23 2:10pm 262 8 G 12 66° 71% - - 57° 72.4° 58.9° - - -
5/23 2:00pm 276 8 G 13 65° 74% - - 57° 72.4° 58.9° - - -
5/23 1:50pm 257 11 G 17 64° 76% - - 57° 72.4° 58.9° - - -
5/23 1:40pm 259 12 G 19 65° 76% - - 57° 72.4° 58.9° - - -
5/23 1:30pm 259 11 G 17 65° 76% - - 57° 72.4° 58.9° - - -
5/23 1:20pm 268 11 G 17 65° 78% - - 58° 72.4° 58.9° - - -
5/23 1:10pm 257 11 G 17 65° 78% - - 58° 72.4° 58.9° - - -
5/23 1:00pm 256 10 G 17 66° 76% - - 58° 72.4° 58.9° - - -
5/23 12:50pm 268 10 G 16 65° 76% - - 58° 72.4° 58.9° - - -
5/23 12:40pm 259 10 G 17 65° 77% - - 58° 72.4° 58.9° - - -
5/23 12:30pm 258 10 G 15 65° 78% - - 58° 72.4° 58.9° - - -
5/23 12:20pm 258 10 G 15 65° 78% - - 58° 72.4° 58.9° - - -
5/23 12:10pm 260 12 G 18 65° 79% - - 58° 72.4° 58.9° - - -
5/23 12:00pm 258 13 G 19 64° 80% - - 58° 72.4° 58.9° - - -
5/23 11:50am 263 11 G 17 64° 81% - - 58° 72.4° 58.9° - - -
5/23 11:40am 263 12 G 16 64° 80% - - 58° 72.4° 58.9° - - -
5/23 11:30am 267 11 G 17 64° 80% - - 58° 72.4° 58.9° - - -
5/23 11:20am 273 10 G 15 64° 80% - - 58° 72.4° 58.9° - - -
5/23 11:10am 261 10 G 14 65° 79% - - 58° 72.4° 58.9° - - -
5/23 11:00am 263 11 G 18 65° 80% - - 59° 72.4° 58.9° - - -
5/23 10:50am 265 11 G 15 65° 80% - - 58° 72.4° 58.9° - - -
5/23 10:40am 271 11 G 16 65° 79% - - 58° 72.4° 58.9° - - -
5/23 10:30am 261 10 G 14 65° 78% - - 58° 72.4° 58.9° - - -
5/23 10:20am 261 11 G 15 65° 77% - - 58° 72.4° 58.9° - - -
5/23 10:10am 251 9 G 14 68° 71% - - 58° 72.4° 58.9° - - -
5/23 10:00am 264 9 G 12 69° 69% - - 58° 72.4° 58.9° - - -
5/23 9:50am 257 8 G 12 71° 63% - - 58° 72.4° 58.9° - - -
5/23 9:40am 277 4 G 8 72° 60% - - 57° 72.4° 58.9° - - -
5/23 9:30am 265 2 G 6 71° 62% - - 57° 72° 58.9° - - -
5/23 9:20am 245 3 G 5 69° 65% - - 57° 70.8° 58.9° - - -
5/23 9:10am 302 2 G 4 70° 65% - - 57° 70.8° 58.9° - - -
5/23 9:00am 358 1 G 3 69° 67% - - 57° 70° 58.9° - - -
5/23 8:50am 84 1 G 4 67° 70% - - 57° 68.5° 58.9° - - -
5/23 8:40am 100 1 G 4 66° 73% - - 57° 67.1° 58.9° - - -
5/23 8:30am 13 2 G 4 66° 74% - - 57° 66.4° 58.9° - - -
5/23 8:20am 85 2 G 4 65° 76% - - 57° 66.2° 58.9° - - -
5/23 8:10am 56 2 G 5 64° 78% - - 57° 64.9° 58.9° - - -
5/23 8:00am 70 2 G 4 63° 81% - - 57° 64.1° 58.9° - - -
5/23 7:50am 31 2 G 4 62° 84% - - 57° 62.7° 58.9° - - -
5/23 7:40am 20 3 G 5 61° 86% - - 56° 61.4° 58.9° - - -
5/23 7:30am 33 3 G 6 60° 87% - - 56° 61.1° 58.9° - - -
5/23 7:20am 63 4 G 7 60° 87% - - 56° 61.1° 58.9° - - -
5/23 7:10am 33 4 G 6 60° 88% - - 56° 61.1° 58.9° - - -
5/23 7:00am 1 3 G 7 60° 88% - - 56° 61.1° 58.9° - - -
5/23 6:50am 5 2 G 4 60° 89% - - 56° 61.1° 58.9° - - -
5/23 6:40am 45 3 G 4 59° 89% - - 56° 61.1° 58.9° - - -
5/23 6:30am 39 3 G 4 59° 89% - - 56° 61.1° 58.9° - - -
5/23 6:20am 5 2 G 5 59° 89% - - 56° 61.1° 58.9° - - -
5/23 6:10am 336 3 G 5 59° 89% - - 56° 61.1° 58.9° - - -
5/23 6:00am 1 2 G 4 59° 90% - - 56° 61.1° 58.9° - - -